createdAt,value
2019-04-23T00:01:28.442Z,10.70
2019-04-23T00:03:05.877Z,10.15
2019-04-23T00:04:36.755Z,10.78
2019-04-23T00:08:07.843Z,10.23
2019-04-23T00:09:33.716Z,10.08
2019-04-23T00:16:14.027Z,10.75
2019-04-23T00:17:42.128Z,10.23
2019-04-23T00:19:16.894Z,11.25
2019-04-23T00:20:57.806Z,10.05
2019-04-23T00:23:02.121Z,10.00
2019-04-23T00:25:20.590Z,10.15
2019-04-23T00:28:09.519Z,10.63
2019-04-23T00:29:38.585Z,10.55
2019-04-23T00:31:21.499Z,10.03
2019-04-23T00:32:46.819Z,9.70
2019-04-23T00:34:27.598Z,10.23
2019-04-23T00:36:03.837Z,10.32
2019-04-23T00:37:35.609Z,9.80
2019-04-23T00:39:20.020Z,9.85
2019-04-23T00:40:51.090Z,10.13
2019-04-23T00:42:29.647Z,10.35
2019-04-23T00:45:44.226Z,10.03
2019-04-23T00:47:22.491Z,9.45
2019-04-23T00:49:00.804Z,9.65
2019-04-23T00:50:39.951Z,9.75
2019-04-23T00:52:14.506Z,9.50
2019-04-23T00:53:43.764Z,9.18
2019-04-23T00:55:21.481Z,9.25
2019-04-23T00:57:00.677Z,9.15
2019-04-23T01:01:57.523Z,9.00
2019-04-23T01:03:21.805Z,10.28
2019-04-23T01:05:27.788Z,9.05
2019-04-23T01:06:40.279Z,9.18
2019-04-23T01:08:18.613Z,9.03
2019-04-23T01:10:03.961Z,9.20
2019-04-23T01:11:35.715Z,9.30
2019-04-23T01:13:14.837Z,8.50
2019-04-23T01:14:48.509Z,8.48
2019-04-23T01:16:22.731Z,8.28
2019-04-23T01:18:15.904Z,8.90
2019-04-23T01:21:07.649Z,8.85
2019-04-23T01:22:42.543Z,8.88
2019-04-23T01:24:38.539Z,10.20
2019-04-23T01:26:33.048Z,8.90
2019-04-23T01:28:18.977Z,9.03
2019-04-23T01:29:58.562Z,8.78
2019-04-23T01:31:27.116Z,9.03
2019-04-23T01:33:11.024Z,9.00
2019-04-23T01:34:51.947Z,8.98
2019-04-23T01:36:33.263Z,9.13
2019-04-23T01:37:50.538Z,8.30
2019-04-23T01:39:28.009Z,8.78
2019-04-23T01:41:13.182Z,8.83
2019-04-23T01:42:43.910Z,9.13
2019-04-23T01:44:33.421Z,9.25
2019-04-23T01:46:04.649Z,8.43
2019-04-23T01:47:38.938Z,9.00
2019-04-23T01:49:18.376Z,8.28
2019-04-23T01:50:52.838Z,8.55
2019-04-23T01:52:35.799Z,8.45
2019-04-23T01:54:05.741Z,8.23
2019-04-23T01:55:42.163Z,9.08
2019-04-23T01:57:28.458Z,8.63
2019-04-23T02:00:34.112Z,8.33
2019-04-23T02:02:14.075Z,8.60
2019-04-23T02:03:46.657Z,8.70
2019-04-23T02:07:05.796Z,8.65
2019-04-23T02:08:45.720Z,8.15
2019-04-23T02:10:25.856Z,8.63
2019-04-23T02:11:50.715Z,9.03
2019-04-23T02:13:32.321Z,8.68
2019-04-23T02:15:10.178Z,8.88
2019-04-23T02:18:16.422Z,9.55
2019-04-23T02:20:01.429Z,8.45
2019-04-23T02:21:35.345Z,9.05
2019-04-23T02:23:31.483Z,8.58
2019-04-23T02:24:55.858Z,9.58
2019-04-23T02:26:27.767Z,8.68
2019-04-23T02:29:51.272Z,9.78
2019-04-23T02:33:10.483Z,9.20
2019-04-23T02:34:51.967Z,8.55
2019-04-23T02:36:07.845Z,8.18
2019-04-23T02:39:29.332Z,8.90
2019-04-23T02:41:19.288Z,8.73
2019-04-23T02:44:16.994Z,9.50
2019-04-23T02:47:36.947Z,9.65
2019-04-23T02:50:48.115Z,9.48
2019-04-23T02:52:21.339Z,8.48
2019-04-23T02:54:04.056Z,9.20
2019-04-23T02:55:50.164Z,8.80
2019-04-23T02:57:16.242Z,8.55
2019-04-23T02:58:54.834Z,9.03
2019-04-23T03:00:40.076Z,9.23
2019-04-23T03:02:14.489Z,8.40
2019-04-23T03:03:42.238Z,8.55
2019-04-23T03:05:24.921Z,8.70
2019-04-23T03:06:56.017Z,9.28
2019-04-23T03:11:41.232Z,10.38
2019-04-23T03:13:29.486Z,9.15
2019-04-23T03:16:54.678Z,8.85
2019-04-23T03:18:42.228Z,9.65
2019-04-23T03:20:14.738Z,10.15
2019-04-23T03:25:25.275Z,9.13
2019-04-23T03:30:48.678Z,9.60
2019-04-23T03:35:16.236Z,10.23
2019-04-23T03:43:26.249Z,10.08
2019-04-23T03:46:41.930Z,11.55
2019-04-23T03:48:17.460Z,11.35
2019-04-23T03:49:46.432Z,11.55
2019-04-23T03:51:31.681Z,10.45
2019-04-23T03:52:57.725Z,10.38
2019-04-23T03:54:42.259Z,10.38
2019-04-23T03:56:44.798Z,10.80
2019-04-23T03:57:49.527Z,11.20
2019-04-23T04:01:07.846Z,10.65
2019-04-23T04:02:54.303Z,10.25
2019-04-23T04:04:26.911Z,10.25
2019-04-23T04:05:56.142Z,10.28
2019-04-23T04:09:17.274Z,10.30
2019-04-23T04:11:09.347Z,10.53
2019-04-23T04:12:21.141Z,10.65
2019-04-23T04:14:01.171Z,10.15
2019-04-23T04:17:17.930Z,10.35
2019-04-23T04:20:37.722Z,10.93
2019-04-23T04:25:15.917Z,11.38
2019-04-23T04:28:27.851Z,10.63
2019-04-23T04:31:52.287Z,11.35
2019-04-23T04:38:25.714Z,12.30
2019-04-23T04:41:27.999Z,12.28
2019-04-23T04:43:14.146Z,12.33
2019-04-23T04:49:34.225Z,12.58
2019-04-23T04:51:08.464Z,12.78
2019-04-23T04:53:00.976Z,13.10
2019-04-23T04:55:55.761Z,12.78
2019-04-23T04:59:10.810Z,13.22
2019-04-23T05:00:59.101Z,12.63
2019-04-23T05:02:26.067Z,12.75
2019-04-23T05:03:50.807Z,13.13
2019-04-23T05:07:27.920Z,13.00
2019-04-23T05:08:48.263Z,13.13
2019-04-23T05:10:30.070Z,13.00
2019-04-23T05:13:41.359Z,12.90
2019-04-23T05:15:09.036Z,12.90
2019-04-23T05:16:48.714Z,13.20
2019-04-23T05:18:38.477Z,13.63
2019-04-23T05:20:17.015Z,13.83
2019-04-23T05:21:55.629Z,14.17
2019-04-23T05:25:12.507Z,14.73
2019-04-23T05:26:48.098Z,14.60
2019-04-23T05:28:18.758Z,12.87
2019-04-23T05:30:09.471Z,12.60
2019-04-23T05:31:32.841Z,12.43
2019-04-23T05:33:18.424Z,13.00
2019-04-23T05:34:57.905Z,12.50
2019-04-23T05:36:37.530Z,11.30
2019-04-23T05:38:23.125Z,11.43
2019-04-23T05:39:39.697Z,11.57
2019-04-23T05:42:52.108Z,10.90
2019-04-23T05:46:17.977Z,10.77
2019-04-23T05:47:43.061Z,11.70
2019-04-23T05:49:22.596Z,11.20
2019-04-23T05:52:43.817Z,9.83
2019-04-23T05:54:14.016Z,10.53
2019-04-23T05:55:51.649Z,10.20
2019-04-23T05:57:20.581Z,10.70
2019-04-23T05:58:58.445Z,10.57
2019-04-23T06:00:41.304Z,10.23
2019-04-23T06:02:26.176Z,10.40
2019-04-23T06:03:52.621Z,9.53
2019-04-23T06:05:27.118Z,10.27
2019-04-23T06:08:38.474Z,9.23
2019-04-23T06:10:14.571Z,9.73
2019-04-23T06:11:58.589Z,9.70
2019-04-23T06:13:26.334Z,9.57
2019-04-23T06:16:41.794Z,9.47
2019-04-23T06:18:20.030Z,9.10
2019-04-23T06:19:53.099Z,9.07
2019-04-23T06:21:33.900Z,8.83
2019-04-23T06:23:05.694Z,8.50
2019-04-23T06:24:55.147Z,9.30
2019-04-23T06:26:24.363Z,8.73
2019-04-23T06:27:57.999Z,8.30
2019-04-23T06:29:38.923Z,9.30
2019-04-23T06:32:37.733Z,8.80
2019-04-23T06:35:57.279Z,8.03
2019-04-23T06:37:36.774Z,8.30
2019-04-23T06:39:09.400Z,8.47
2019-04-23T06:40:43.487Z,7.97
2019-04-23T06:42:14.480Z,7.67
2019-04-23T06:44:05.838Z,8.80
2019-04-23T06:45:33.880Z,8.20
2019-04-23T06:47:09.808Z,7.20
2019-04-23T06:48:47.054Z,8.37
2019-04-23T06:50:22.237Z,7.87
2019-04-23T06:52:11.858Z,7.67
2019-04-23T06:53:30.680Z,7.00
2019-04-23T06:55:14.929Z,7.57
2019-04-23T06:58:25.728Z,7.83
2019-04-23T06:59:59.183Z,7.67
2019-04-23T07:01:50.399Z,7.20
2019-04-23T07:03:15.035Z,6.90
2019-04-23T07:04:58.687Z,7.70
2019-04-23T07:08:02.860Z,7.63
2019-04-23T07:09:35.483Z,7.13
2019-04-23T07:11:23.319Z,6.83
2019-04-23T07:12:50.691Z,6.90
2019-04-23T07:14:32.226Z,6.47
2019-04-23T07:16:01.235Z,7.23
2019-04-23T07:17:34.516Z,7.03
2019-04-23T07:19:26.833Z,7.13
2019-04-23T07:20:51.464Z,7.37
2019-04-23T07:22:26.815Z,7.40
2019-04-23T07:24:05.400Z,7.53
2019-04-23T07:25:44.345Z,7.33
2019-04-23T07:27:18.179Z,7.20
2019-04-23T07:28:54.625Z,7.40
2019-04-23T07:30:29.498Z,7.80
2019-04-23T07:33:45.926Z,7.57
2019-04-23T07:35:13.314Z,7.93
2019-04-23T07:36:53.730Z,7.50
2019-04-23T07:40:40.454Z,7.47
2019-04-23T07:42:37.275Z,8.50
2019-04-23T07:44:33.478Z,7.80
2019-04-23T07:46:17.167Z,6.97
2019-04-23T07:48:10.806Z,7.90
2019-04-23T07:49:51.796Z,7.90
2019-04-23T07:51:22.846Z,7.30
2019-04-23T07:54:38.718Z,7.40
2019-04-23T07:57:54.476Z,7.87
2019-04-23T07:59:31.194Z,6.90
2019-04-23T08:01:02.042Z,7.03
2019-04-23T08:02:34.576Z,7.77
2019-04-23T08:04:12.053Z,7.57
2019-04-23T08:05:44.011Z,7.00
2019-04-23T08:08:59.601Z,7.37
2019-04-23T08:10:35.718Z,7.60
2019-04-23T08:12:19.326Z,7.63
2019-04-23T08:13:53.465Z,7.90
2019-04-23T08:15:32.041Z,7.77
2019-04-23T08:16:58.406Z,8.50
2019-04-23T08:18:45.232Z,8.27
2019-04-23T08:20:18.381Z,8.03
2019-04-23T08:21:58.191Z,8.13
2019-04-23T08:23:44.108Z,8.13
2019-04-23T08:25:47.049Z,7.70
2019-04-23T08:27:18.151Z,8.07
2019-04-23T08:29:06.505Z,7.57
2019-04-23T08:30:32.659Z,8.23
2019-04-23T08:33:54.921Z,8.97
2019-04-23T08:35:13.792Z,8.00
2019-04-23T08:37:01.391Z,8.47
2019-04-23T08:38:39.358Z,8.23
2019-04-23T08:40:06.541Z,7.83
2019-04-23T08:42:00.312Z,8.07
2019-04-23T08:43:36.679Z,8.80
2019-04-23T08:45:32.284Z,8.87
2019-04-23T08:50:15.453Z,7.73
2019-04-23T08:51:52.214Z,8.10
2019-04-23T08:56:41.102Z,8.70
2019-04-23T08:58:23.608Z,8.43
2019-04-23T09:01:27.889Z,8.47
2019-04-23T09:03:04.819Z,8.40
2019-04-23T09:14:15.242Z,8.40
2019-04-23T09:17:47.694Z,8.33
2019-04-23T09:19:11.166Z,7.87
2019-04-23T09:22:21.969Z,8.50
2019-04-23T09:23:54.168Z,8.83
2019-04-23T09:25:37.314Z,8.17
2019-04-23T09:27:16.300Z,8.80
2019-04-23T09:28:45.695Z,8.93
2019-04-23T09:30:25.401Z,8.87
2019-04-23T09:32:22.408Z,8.30
2019-04-23T09:35:36.072Z,8.67
2019-04-23T09:37:54.218Z,8.53
2019-04-23T09:39:34.707Z,8.33
2019-04-23T09:43:00.994Z,8.33
2019-04-23T09:44:58.092Z,8.57
2019-04-23T09:46:36.168Z,8.60
2019-04-23T09:49:53.917Z,9.30
2019-04-23T09:51:30.198Z,8.67
2019-04-23T09:53:09.787Z,10.37
2019-04-23T09:56:14.662Z,9.93
2019-04-23T09:58:00.142Z,9.60
2019-04-23T09:59:30.998Z,10.77
2019-04-23T10:02:49.944Z,10.10
2019-04-23T10:04:22.168Z,10.50
2019-04-23T10:05:54.803Z,10.50
2019-04-23T10:07:34.844Z,10.77
2019-04-23T10:09:01.688Z,10.10
2019-04-23T10:10:34.308Z,9.40
2019-04-23T10:12:09.456Z,9.93
2019-04-23T10:13:45.020Z,10.50
2019-04-23T10:15:26.222Z,10.17
2019-04-23T10:16:58.031Z,9.30
2019-04-23T10:18:33.180Z,9.53
2019-04-23T10:20:08.713Z,8.50
2019-04-23T10:21:43.829Z,9.83
2019-04-23T10:23:19.003Z,9.60
2019-04-23T10:24:55.110Z,10.20
2019-04-23T10:26:30.280Z,10.33
2019-04-23T10:28:10.934Z,10.13
2019-04-23T10:29:45.766Z,9.93
2019-04-23T10:31:20.911Z,10.30
2019-04-23T10:32:55.909Z,10.57
2019-04-23T10:34:42.971Z,9.90
2019-04-23T10:36:12.855Z,9.87
2019-04-23T10:37:52.191Z,9.90
2019-04-23T10:39:25.398Z,10.23
2019-04-23T10:40:56.205Z,10.00
2019-04-23T10:42:33.892Z,9.80
2019-04-23T10:44:23.327Z,9.83
2019-04-23T10:47:00.148Z,9.73
2019-04-23T10:48:49.933Z,8.97
2019-04-23T10:50:50.753Z,8.97
2019-04-23T10:55:46.768Z,9.83
2019-04-23T10:58:45.775Z,10.77
2019-04-23T11:00:30.718Z,9.43
2019-04-23T11:02:24.583Z,10.43
2019-04-23T11:05:47.593Z,10.13
2019-04-23T11:06:56.533Z,9.77
2019-04-23T11:08:31.013Z,11.00
2019-04-23T11:11:53.251Z,9.70
2019-04-23T11:13:50.277Z,9.83
2019-04-23T11:15:34.791Z,10.20
2019-04-23T11:18:34.406Z,10.43
2019-04-23T11:20:07.839Z,9.67
2019-04-23T11:21:56.520Z,9.83
2019-04-23T11:23:09.184Z,10.43
2019-04-23T11:24:50.092Z,10.10
2019-04-23T11:26:28.536Z,9.67
2019-04-23T11:28:11.803Z,10.67
2019-04-23T11:31:25.885Z,10.57
2019-04-23T11:33:03.425Z,9.70
2019-04-23T11:36:33.698Z,11.67
2019-04-23T11:39:28.145Z,11.27
2019-04-23T11:40:50.303Z,10.67
2019-04-23T11:42:38.142Z,11.07
2019-04-23T11:44:23.707Z,11.27
2019-04-23T11:45:53.983Z,10.47
2019-04-23T11:47:59.957Z,11.10
2019-04-23T11:51:05.439Z,10.67
2019-04-23T11:53:48.233Z,11.57
2019-04-23T11:58:42.571Z,10.20
2019-04-23T12:00:14.513Z,10.87
2019-04-23T12:02:05.423Z,10.57
2019-04-23T12:04:14.889Z,11.00
2019-04-23T12:06:07.509Z,10.17
2019-04-23T12:08:21.206Z,10.63
2019-04-23T12:10:04.796Z,11.20
2019-04-23T12:15:07.362Z,10.10
2019-04-23T12:16:55.615Z,9.90
2019-04-23T12:18:24.045Z,10.77
2019-04-23T12:21:43.461Z,10.90
2019-04-23T12:23:12.184Z,12.00
2019-04-23T12:25:03.445Z,11.23
2019-04-23T12:26:34.236Z,11.70
2019-04-23T12:27:59.742Z,11.07
2019-04-23T12:29:44.059Z,11.30
2019-04-23T12:31:10.008Z,12.07
2019-04-23T12:34:26.151Z,11.13
2019-04-23T12:36:28.278Z,10.33
2019-04-23T12:39:56.850Z,11.10
2019-04-23T12:41:21.106Z,11.40
2019-04-23T12:43:07.803Z,11.47
2019-04-23T12:44:38.677Z,11.53
2019-04-23T12:46:08.829Z,11.23
2019-04-23T12:47:58.209Z,10.10
2019-04-23T12:51:26.889Z,11.03
2019-04-23T12:54:31.918Z,11.57
2019-04-23T12:55:57.937Z,11.20
2019-04-23T12:57:40.261Z,11.27
2019-04-23T12:59:25.298Z,11.57
2019-04-23T13:00:51.520Z,10.93
2019-04-23T13:04:11.772Z,11.70
2019-04-23T13:05:38.932Z,12.17
2019-04-23T13:07:36.686Z,11.67
2019-04-23T13:09:01.478Z,11.90
2019-04-23T13:10:35.501Z,11.90
2019-04-23T13:12:20.309Z,11.57
2019-04-23T13:13:51.995Z,11.13
2019-04-23T13:15:29.236Z,11.83
2019-04-23T13:17:12.593Z,11.93
2019-04-23T13:25:32.958Z,11.93
2019-04-23T13:27:15.945Z,11.53
2019-04-23T13:28:43.065Z,11.67
2019-04-23T13:30:23.355Z,12.00
2019-04-23T13:31:51.778Z,11.10
2019-04-23T13:35:25.561Z,11.57
2019-04-23T13:36:45.530Z,12.50
2019-04-23T13:38:24.998Z,11.77
2019-04-23T13:40:21.361Z,12.90
2019-04-23T13:41:33.271Z,13.53
2019-04-23T13:43:19.516Z,12.47
2019-04-23T13:44:46.666Z,13.40
2019-04-23T13:46:23.046Z,13.53
2019-04-23T13:49:43.184Z,12.97
2019-04-23T13:51:23.804Z,12.50
2019-04-23T13:54:52.685Z,12.97
2019-04-23T13:56:03.724Z,13.37
2019-04-23T13:58:02.642Z,13.17
2019-04-23T13:59:28.821Z,12.30
2019-04-23T14:01:07.469Z,13.20
2019-04-23T14:02:48.849Z,14.03
2019-04-23T14:04:32.899Z,13.13
2019-04-23T14:07:54.794Z,14.87
2019-04-23T14:09:39.500Z,13.37
2019-04-23T14:11:10.689Z,13.07
2019-04-23T14:14:34.446Z,13.90
2019-04-23T14:17:46.964Z,14.30
2019-04-23T14:19:08.918Z,14.50
2019-04-23T14:20:52.045Z,13.80
2019-04-23T14:25:40.075Z,13.40
2019-04-23T14:27:24.059Z,14.37
2019-04-23T14:28:44.492Z,14.17
2019-04-23T14:30:38.546Z,14.10
2019-04-23T14:32:08.805Z,13.07
2019-04-23T14:33:50.662Z,12.93
2019-04-23T14:35:25.552Z,13.47
2019-04-23T14:36:57.521Z,13.33
2019-04-23T14:40:29.720Z,13.20
2019-04-23T14:41:53.778Z,13.27
2019-04-23T14:43:31.415Z,12.83
2019-04-23T14:48:29.925Z,12.60
2019-04-23T14:50:28.042Z,12.53
2019-04-23T14:51:39.313Z,12.03
2019-04-23T14:53:18.444Z,12.73
2019-04-23T14:56:30.177Z,12.30
2019-04-23T14:59:37.748Z,12.90
2019-04-23T15:03:00.274Z,12.30
2019-04-23T15:04:33.732Z,11.60
2019-04-23T15:07:42.133Z,11.53
2019-04-23T15:09:36.765Z,11.90
2019-04-23T15:11:06.325Z,12.33
2019-04-23T15:12:33.556Z,12.33
2019-04-23T15:14:08.827Z,12.20
2019-04-23T15:15:44.189Z,12.63
2019-04-23T15:17:20.623Z,13.17
2019-04-23T15:19:34.508Z,12.57
2019-04-23T15:21:08.342Z,13.07
2019-04-23T15:22:39.666Z,13.23
2019-04-23T15:24:13.939Z,12.40
2019-04-23T15:25:43.921Z,12.50
2019-04-23T15:28:00.289Z,12.67
2019-04-23T15:28:34.038Z,12.70
2019-04-23T15:30:25.445Z,12.90
2019-04-23T15:37:15.519Z,13.03
2019-04-23T15:38:43.824Z,13.47
2019-04-23T15:40:11.140Z,12.87
2019-04-23T15:41:49.581Z,12.40
2019-04-23T15:43:17.290Z,13.20
2019-04-23T15:45:02.368Z,14.00
2019-04-23T15:48:13.804Z,13.47
2019-04-23T15:49:44.137Z,12.00
2019-04-23T15:51:28.154Z,12.20
2019-04-23T15:52:58.057Z,11.67
2019-04-23T15:54:43.355Z,12.67
2019-04-23T15:56:23.352Z,12.10
2019-04-23T15:59:29.573Z,12.07
2019-04-23T16:01:21.237Z,11.73
2019-04-23T16:02:23.676Z,11.03
2019-04-23T16:03:59.193Z,11.17
2019-04-23T16:05:35.018Z,11.33
2019-04-23T16:07:11.661Z,11.03
2019-04-23T16:10:54.572Z,10.53
2019-04-23T16:12:26.801Z,9.93
2019-04-23T16:14:17.011Z,10.17
2019-04-23T16:15:47.436Z,9.87
2019-04-23T16:17:21.195Z,9.33
2019-04-23T16:19:22.051Z,9.53
2019-04-23T16:21:10.594Z,9.37
2019-04-23T16:22:24.782Z,10.60
2019-04-23T16:24:07.489Z,9.17
2019-04-23T16:25:38.708Z,9.63
2019-04-23T16:27:14.961Z,9.50
2019-04-23T16:29:19.138Z,10.27
2019-04-23T16:32:14.802Z,9.87
2019-04-23T16:34:12.208Z,9.83
2019-04-23T16:35:59.946Z,10.13
2019-04-23T16:37:27.403Z,9.50
2019-04-23T16:40:39.352Z,9.37
2019-04-23T16:42:16.898Z,8.93
2019-04-23T16:43:59.258Z,8.93
2019-04-23T16:45:45.735Z,8.67
2019-04-23T16:47:10.821Z,8.83
2019-04-23T16:48:50.673Z,8.23
2019-04-23T16:50:20.861Z,7.70
2019-04-23T16:51:57.145Z,7.73
2019-04-23T16:55:07.023Z,7.10
2019-04-23T16:57:01.310Z,7.57
2019-04-23T16:58:33.455Z,6.93
2019-04-23T17:00:17.998Z,7.10
2019-04-23T17:01:34.610Z,7.40
2019-04-23T17:03:19.346Z,7.17
2019-04-23T17:04:55.095Z,7.60
2019-04-23T17:06:27.609Z,6.97
2019-04-23T17:08:32.580Z,6.73
2019-04-23T17:09:56.645Z,6.40
2019-04-23T17:11:19.918Z,6.53
2019-04-23T17:12:58.016Z,7.03
2019-04-23T17:14:23.150Z,7.07
2019-04-23T17:17:38.249Z,7.37
2019-04-23T17:19:22.685Z,6.70
2019-04-23T17:20:58.233Z,6.93
2019-04-23T17:22:33.827Z,6.60
2019-04-23T17:25:54.289Z,7.17
2019-04-23T17:29:06.669Z,7.17
2019-04-23T17:32:20.956Z,7.47
2019-04-23T17:37:37.392Z,7.97
2019-04-23T17:39:27.440Z,7.43
2019-04-23T17:41:41.706Z,8.13
2019-04-23T17:43:14.623Z,8.27
2019-04-23T17:46:18.028Z,7.57
2019-04-23T17:48:03.774Z,8.07
2019-04-23T17:49:35.158Z,7.93
2019-04-23T17:51:11.048Z,8.13
2019-04-23T17:52:52.520Z,7.40
2019-04-23T17:54:41.239Z,7.93
2019-04-23T17:57:43.069Z,7.53
2019-04-23T17:59:23.249Z,7.87
2019-04-23T18:04:34.744Z,7.00
2019-04-23T18:06:23.444Z,6.70
2019-04-23T18:07:50.569Z,7.50
2019-04-23T18:09:32.305Z,7.30
2019-04-23T18:11:13.101Z,7.20
2019-04-23T18:15:56.839Z,6.73
2019-04-23T18:17:35.574Z,7.03
2019-04-23T18:19:07.766Z,7.13
2019-04-23T18:21:08.454Z,7.53
2019-04-23T18:22:43.317Z,6.87
2019-04-23T18:24:41.320Z,7.10
2019-04-23T18:26:30.767Z,7.70
2019-04-23T18:28:00.592Z,7.47
2019-04-23T18:30:00.974Z,7.17
2019-04-23T18:31:46.903Z,6.77
2019-04-23T18:36:59.387Z,5.90
2019-04-23T18:40:00.342Z,5.97
2019-04-23T18:41:43.509Z,5.37
2019-04-23T18:43:34.116Z,5.23
2019-04-23T18:44:57.389Z,4.93
2019-04-23T18:50:17.970Z,5.67
2019-04-23T18:51:40.572Z,5.57
2019-04-23T18:54:55.658Z,5.40
2019-04-23T18:56:46.331Z,5.10
2019-04-23T18:58:09.139Z,5.43
2019-04-23T19:01:28.087Z,4.57
2019-04-23T19:03:21.200Z,4.40
2019-04-23T19:05:10.597Z,4.67
2019-04-23T19:06:33.078Z,4.60
2019-04-23T19:08:33.246Z,4.30
2019-04-23T19:13:31.237Z,4.20
2019-04-23T19:18:27.911Z,3.93
2019-04-23T19:20:03.505Z,3.73
2019-04-23T19:22:01.020Z,3.80
2019-04-23T19:23:32.273Z,4.00
2019-04-23T19:24:46.351Z,3.67
2019-04-23T19:26:49.725Z,4.03
2019-04-23T19:28:10.479Z,4.20
2019-04-23T19:29:43.883Z,3.80
2019-04-23T19:31:33.279Z,3.83
2019-04-23T19:33:16.423Z,4.30
2019-04-23T19:34:53.213Z,4.00
2019-04-23T19:36:35.980Z,4.13
2019-04-23T19:38:05.830Z,4.67
2019-04-23T19:39:50.081Z,4.27
2019-04-23T19:41:12.856Z,4.83
2019-04-23T19:43:01.094Z,4.50
2019-04-23T19:44:47.567Z,5.07
2019-04-23T19:46:46.131Z,4.23
2019-04-23T19:49:53.401Z,4.57
2019-04-23T19:51:16.745Z,4.33
2019-04-23T19:54:44.260Z,4.83
2019-04-23T19:57:56.507Z,5.33
2019-04-23T19:59:23.355Z,5.33
2019-04-23T20:01:12.454Z,5.70
2019-04-23T20:02:55.293Z,5.73
2019-04-23T20:04:39.459Z,5.30
2019-04-23T20:06:18.674Z,6.27
2019-04-23T20:09:44.121Z,6.10
2019-04-23T20:11:15.466Z,5.73
2019-04-23T20:12:54.482Z,5.33
2019-04-23T20:14:34.615Z,6.00
2019-04-23T20:17:42.767Z,6.60
2019-04-23T20:19:26.992Z,6.70
2019-04-23T20:20:54.481Z,6.63
2019-04-23T20:22:45.471Z,6.03
2019-04-23T20:24:21.585Z,6.60
2019-04-23T20:26:12.494Z,7.00
2019-04-23T20:29:21.554Z,7.17
2019-04-23T20:31:15.271Z,7.07
2019-04-23T20:33:37.771Z,6.93
2019-04-23T20:34:40.142Z,7.63
2019-04-23T20:36:14.090Z,7.37
2019-04-23T20:38:11.497Z,6.63
2019-04-23T20:39:21.476Z,6.80
2019-04-23T20:41:03.962Z,6.77
2019-04-23T20:44:14.295Z,7.47
2019-04-23T20:45:55.878Z,7.80
2019-04-23T20:47:40.452Z,7.27
2019-04-23T20:49:04.892Z,7.57
2019-04-23T20:50:39.729Z,7.43
2019-04-23T20:52:13.685Z,7.27
2019-04-23T20:54:00.672Z,7.27
2019-04-23T20:55:41.139Z,7.67
2019-04-23T20:57:39.214Z,7.33
2019-04-23T21:00:50.245Z,8.47
2019-04-23T21:03:06.677Z,8.10
2019-04-23T21:04:24.029Z,7.93
2019-04-23T21:06:01.819Z,8.37
2019-04-23T21:07:50.428Z,8.93
2019-04-23T21:10:40.341Z,8.93
2019-04-23T21:12:44.819Z,8.70
2019-04-23T21:17:15.371Z,9.17
2019-04-23T21:18:49.905Z,8.77
2019-04-23T21:20:35.752Z,9.60
2019-04-23T21:22:09.292Z,9.33
2019-04-23T21:23:47.499Z,9.10
2019-04-23T21:25:14.510Z,8.67
2019-04-23T21:26:59.816Z,8.90
2019-04-23T21:28:41.454Z,9.20
2019-04-23T21:30:43.621Z,9.53
2019-04-23T21:32:16.909Z,9.23
2019-04-23T21:33:52.126Z,10.03
2019-04-23T21:35:30.004Z,9.93
2019-04-23T21:37:14.182Z,9.53
2019-04-23T21:38:55.826Z,10.90
2019-04-23T21:42:38.453Z,10.67
2019-04-23T21:45:52.765Z,11.83
2019-04-23T21:47:15.402Z,10.87
2019-04-23T21:49:09.389Z,11.10
2019-04-23T21:50:36.936Z,11.27
2019-04-23T21:52:06.386Z,12.30
2019-04-23T21:53:46.040Z,12.27
2019-04-23T21:55:22.471Z,12.20
2019-04-23T21:58:34.999Z,12.23
2019-04-23T22:00:07.850Z,12.47
2019-04-23T22:01:44.954Z,11.57
2019-04-23T22:03:34.155Z,13.77
2019-04-23T22:05:17.459Z,12.10
2019-04-23T22:06:43.411Z,12.13
2019-04-23T22:08:05.802Z,14.17
2019-04-23T22:09:50.382Z,13.67
2019-04-23T22:13:09.596Z,13.20
2019-04-23T22:14:40.605Z,14.03
2019-04-23T22:16:14.617Z,13.73
2019-04-23T22:19:42.169Z,15.73
2019-04-23T22:21:04.870Z,14.53
2019-04-23T22:22:49.654Z,14.53
2019-04-23T22:24:10.320Z,14.90
2019-04-23T22:25:56.459Z,15.30
2019-04-23T22:27:27.599Z,15.37
2019-04-23T22:29:14.373Z,14.93
2019-04-23T22:30:52.248Z,16.07
2019-04-23T22:32:12.973Z,14.77
2019-04-23T22:35:20.336Z,15.93
2019-04-23T22:37:14.020Z,14.03
2019-04-23T22:38:45.277Z,15.90
2019-04-23T22:40:10.218Z,16.50
2019-04-23T22:43:29.691Z,17.57
2019-04-23T22:48:17.947Z,16.77
2019-04-23T22:50:02.201Z,16.83
2019-04-23T22:51:41.372Z,16.10
2019-04-23T22:53:16.847Z,16.70
2019-04-23T22:54:51.666Z,15.97
2019-04-23T22:56:13.795Z,17.30
2019-04-23T22:59:48.488Z,17.90
2019-04-23T23:01:26.053Z,17.70
2019-04-23T23:05:04.234Z,17.57
2019-04-23T23:06:34.802Z,17.67
2019-04-23T23:09:44.002Z,17.97
2019-04-23T23:11:11.909Z,17.53
2019-04-23T23:13:01.838Z,18.23
2019-04-23T23:14:46.019Z,18.00
2019-04-23T23:16:14.856Z,17.13
2019-04-23T23:17:53.273Z,17.13
2019-04-23T23:19:22.234Z,18.77
2019-04-23T23:20:52.760Z,17.93
2019-04-23T23:22:27.306Z,18.47
2019-04-23T23:25:39.675Z,17.73
2019-04-23T23:27:19.700Z,17.57
2019-04-23T23:32:13.335Z,18.20
2019-04-23T23:35:22.673Z,16.93
2019-04-23T23:37:00.179Z,18.33
2019-04-23T23:38:43.573Z,18.23
2019-04-23T23:40:18.891Z,17.97
2019-04-23T23:45:01.943Z,17.47
2019-04-23T23:46:39.282Z,18.10
2019-04-23T23:48:08.384Z,18.87
2019-04-23T23:49:56.269Z,18.60
2019-04-23T23:53:02.719Z,19.57
2019-04-23T23:54:27.576Z,18.13
2019-04-23T23:57:51.397Z,18.50
